Teixeiras, Brazil
Current Conditions -  °F | °C
As of 7:00 PM on Sunday 19 Oct 2014 (Local Time) from SBBQ Reporting Station
Clear Clear  
Wind Chill: 77°   Ceiling: Unl
Heat Index: 79°   Visibility: 6mi
Dew Point: 57°   Wind: 3mph
Humidity: 50%   Direction: 40°NE
Pressure: 30.03"   Gusts: NA
Location:  20.65°S, 42.86°W
Report Text: SBBQ 192200Z 04003KT CAVOK 25/14 Q1017
Loading
Personal Weather Stations






























Interactive Weather Map
Tropical Storm Tracking
New forecast layout! Learn more

10-Day Weather Forecast

Advertisements
Track Severe Weather on mobile